sensor_id;sensor_type;location;lat;lon;timestamp;pressure;altitude;pressure_sealevel;temperature;humidity
7832;BME280;3961;42.058;25.586;2022-10-18T00:01:08;63194.31;;;8.72;100.00
7832;BME280;3961;42.058;25.586;2022-10-18T00:03:34;63193.25;;;8.66;100.00
7832;BME280;3961;42.058;25.586;2022-10-18T00:06:00;63197.53;;;8.72;100.00
7832;BME280;3961;42.058;25.586;2022-10-18T00:08:26;63200.06;;;8.77;100.00
7832;BME280;3961;42.058;25.586;2022-10-18T00:10:52;63208.44;;;8.82;100.00
7832;BME280;3961;42.058;25.586;2022-10-18T00:13:18;63222.06;;;8.92;100.00
7832;BME280;3961;42.058;25.586;2022-10-18T00:15:48;63214.47;;;8.90;100.00
7832;BME280;3961;42.058;25.586;2022-10-18T00:18:14;63211.00;;;8.87;100.00
7832;BME280;3961;42.058;25.586;2022-10-18T00:20:39;63213.31;;;8.89;100.00
7832;BME280;3961;42.058;25.586;2022-10-18T00:23:05;63222.53;;;8.97;100.00
7832;BME280;3961;42.058;25.586;2022-10-18T00:25:30;63220.56;;;8.93;100.00
7832;BME280;3961;42.058;25.586;2022-10-18T00:27:56;63220.31;;;8.90;100.00
7832;BME280;3961;42.058;25.586;2022-10-18T00:30:21;63206.38;;;8.83;100.00
7832;BME280;3961;42.058;25.586;2022-10-18T00:32:47;63199.50;;;8.77;100.00
7832;BME280;3961;42.058;25.586;2022-10-18T00:35:12;63176.19;;;8.54;100.00
7832;BME280;3961;42.058;25.586;2022-10-18T00:37:38;63180.22;;;8.57;100.00
7832;BME280;3961;42.058;25.586;2022-10-18T00:40:04;63170.09;;;8.51;100.00
7832;BME280;3961;42.058;25.586;2022-10-18T00:42:33;63151.09;;;8.34;100.00
7832;BME280;3961;42.058;25.586;2022-10-18T00:47:39;63128.72;;;8.09;100.00
7832;BME280;3961;42.058;25.586;2022-10-18T00:50:06;63132.38;;;8.15;100.00
7832;BME280;3961;42.058;25.586;2022-10-18T00:52:42;63101.53;;;7.90;100.00
7832;BME280;3961;42.058;25.586;2022-10-18T00:55:10;63130.88;;;8.16;100.00
7832;BME280;3961;42.058;25.586;2022-10-18T00:57:37;63134.09;;;8.17;100.00
7832;BME280;3961;42.058;25.586;2022-10-18T01:00:04;63137.81;;;8.22;100.00
7832;BME280;3961;42.058;25.586;2022-10-18T01:02:35;63131.47;;;8.17;100.00
7832;BME280;3961;42.058;25.586;2022-10-18T01:05:01;63121.94;;;8.11;100.00
7832;BME280;3961;42.058;25.586;2022-10-18T01:13:20;63130.88;;;8.16;100.00
7832;BME280;3961;42.058;25.586;2022-10-18T01:16:58;63114.78;;;8.02;100.00
7832;BME280;3961;42.058;25.586;2022-10-18T01:21:53;63113.97;;;7.99;100.00
7832;BME280;3961;42.058;25.586;2022-10-18T01:27:10;63115.94;;;8.03;100.00
7832;BME280;3961;42.058;25.586;2022-10-18T01:32:32;63107.63;;;7.93;100.00
7832;BME280;3961;42.058;25.586;2022-10-18T01:35:05;63113.38;;;7.98;100.00
7832;BME280;3961;42.058;25.586;2022-10-18T01:37:33;63125.16;;;8.11;100.00
7832;BME280;3961;42.058;25.586;2022-10-18T01:40:02;63130.66;;;8.14;100.00
7832;BME280;3961;42.058;25.586;2022-10-18T01:42:31;63108.69;;;7.99;100.00
7832;BME280;3961;42.058;25.586;2022-10-18T01:44:57;63103.84;;;7.92;100.00
7832;BME280;3961;42.058;25.586;2022-10-18T01:47:24;63099.56;;;7.86;100.00
7832;BME280;3961;42.058;25.586;2022-10-18T01:49:59;63105.56;;;7.94;100.00
7832;BME280;3961;42.058;25.586;2022-10-18T01:52:25;63114.88;;;7.97;100.00
7832;BME280;3961;42.058;25.586;2022-10-18T01:54:51;63110.28;;;7.93;100.00
7832;BME280;3961;42.058;25.586;2022-10-18T01:57:33;63103.25;;;7.92;100.00
7832;BME280;3961;42.058;25.586;2022-10-18T02:00:23;63097.25;;;7.84;100.00
7832;BME280;3961;42.058;25.586;2022-10-18T02:02:53;63101.53;;;7.90;100.00
7832;BME280;3961;42.058;25.586;2022-10-18T02:05:44;63112.25;;;7.97;100.00
7832;BME280;3961;42.058;25.586;2022-10-18T02:11:06;63107.06;;;7.93;100.00
7832;BME280;3961;42.058;25.586;2022-10-18T02:13:36;63112.25;;;7.97;100.00
7832;BME280;3961;42.058;25.586;2022-10-18T02:16:40;63107.06;;;7.93;100.00
7832;BME280;3961;42.058;25.586;2022-10-18T02:21:49;63109.59;;;7.97;100.00
7832;BME280;3961;42.058;25.586;2022-10-18T02:24:16;63105.31;;;7.91;100.00
7832;BME280;3961;42.058;25.586;2022-10-18T02:26:43;63096.44;;;7.81;100.00
7832;BME280;3961;42.058;25.586;2022-10-18T02:29:08;63090.94;;;7.79;100.00
7832;BME280;3961;42.058;25.586;2022-10-18T02:31:44;63067.91;;;7.58;100.00
7832;BME280;3961;42.058;25.586;2022-10-18T02:36:49;63014.41;;;7.11;100.00
7832;BME280;3961;42.058;25.586;2022-10-18T02:39:21;63015.91;;;7.10;100.00
7832;BME280;3961;42.058;25.586;2022-10-18T02:41:47;63005.19;;;7.03;100.00
7832;BME280;3961;42.058;25.586;2022-10-18T02:44:13;62998.28;;;6.97;100.00
7832;BME280;3961;42.058;25.586;2022-10-18T02:46:39;63000.84;;;7.01;100.00
7832;BME280;3961;42.058;25.586;2022-10-18T02:49:05;63000.03;;;6.98;100.00
7832;BME280;3961;42.058;25.586;2022-10-18T02:51:32;62981.63;;;6.82;100.00
7832;BME280;3961;42.058;25.586;2022-10-18T02:53:57;62995.66;;;6.97;100.00
7832;BME280;3961;42.058;25.586;2022-10-18T02:56:23;62989.56;;;6.94;100.00
7832;BME280;3961;42.058;25.586;2022-10-18T02:58:49;62990.16;;;6.94;100.00
7832;BME280;3961;42.058;25.586;2022-10-18T03:01:14;62998.28;;;6.97;100.00
7832;BME280;3961;42.058;25.586;2022-10-18T03:03:40;62988.41;;;6.93;100.00
7832;BME280;3961;42.058;25.586;2022-10-18T03:06:05;62977.59;;;6.79;100.00
7832;BME280;3961;42.058;25.586;2022-10-18T03:08:31;62970.38;;;6.74;100.00
7832;BME280;3961;42.058;25.586;2022-10-18T03:10:56;62973.34;;;6.72;100.00
7832;BME280;3961;42.058;25.586;2022-10-18T03:13:22;62982.41;;;6.85;100.00
7832;BME280;3961;42.058;25.586;2022-10-18T03:15:48;62979.91;;;6.81;100.00
7832;BME280;3961;42.058;25.586;2022-10-18T03:18:14;62994.25;;;6.93;100.00
7832;BME280;3961;42.058;25.586;2022-10-18T03:20:40;62990.47;;;6.92;100.00
7832;BME280;3961;42.058;25.586;2022-10-18T03:23:05;63003.81;;;6.99;100.00
7832;BME280;3961;42.058;25.586;2022-10-18T03:25:32;62988.41;;;6.93;100.00
7832;BME280;3961;42.058;25.586;2022-10-18T03:27:58;62993.94;;;6.95;100.00
7832;BME280;3961;42.058;25.586;2022-10-18T03:30:23;62984.16;;;6.87;100.00
7832;BME280;3961;42.058;25.586;2022-10-18T03:32:49;62965.53;;;6.68;100.00
7832;BME280;3961;42.058;25.586;2022-10-18T03:35:14;62985.88;;;6.88;100.00
7832;BME280;3961;42.058;25.586;2022-10-18T03:37:40;62978.19;;;6.79;100.00
7832;BME280;3961;42.058;25.586;2022-10-18T03:40:06;62986.44;;;6.89;100.00
7832;BME280;3961;42.058;25.586;2022-10-18T03:42:32;62958.84;;;6.64;100.00
7832;BME280;3961;42.058;25.586;2022-10-18T03:44:57;62984.25;;;6.82;100.00
7832;BME280;3961;42.058;25.586;2022-10-18T03:47:23;62961.72;;;6.67;100.00
7832;BME280;3961;42.058;25.586;2022-10-18T03:49:48;62966.66;;;6.69;100.00
7832;BME280;3961;42.058;25.586;2022-10-18T03:52:14;62962.31;;;6.67;100.00
7832;BME280;3961;42.058;25.586;2022-10-18T03:54:39;62963.22;;;6.66;100.00
7832;BME280;3961;42.058;25.586;2022-10-18T03:57:04;62981.38;;;6.80;100.00
7832;BME280;3961;42.058;25.586;2022-10-18T03:59:30;62985.31;;;6.88;100.00
7832;BME280;3961;42.058;25.586;2022-10-18T04:01:55;62990.81;;;6.90;100.00
7832;BME280;3961;42.058;25.586;2022-10-18T04:04:21;62994.25;;;6.93;100.00
7832;BME280;3961;42.058;25.586;2022-10-18T04:06:46;62976.91;;;6.83;100.00
7832;BME280;3961;42.058;25.586;2022-10-18T04:09:12;62975.78;;;6.82;100.00
7832;BME280;3961;42.058;25.586;2022-10-18T04:11:38;62942.75;;;6.50;100.00
7832;BME280;3961;42.058;25.586;2022-10-18T04:14:03;62964.03;;;6.69;100.00
7832;BME280;3961;42.058;25.586;2022-10-18T04:16:29;62974.97;;;6.79;100.00
7832;BME280;3961;42.058;25.586;2022-10-18T04:18:54;62986.78;;;6.87;100.00
7832;BME280;3961;42.058;25.586;2022-10-18T04:21:20;62959.44;;;6.65;100.00
7832;BME280;3961;42.058;25.586;2022-10-18T04:23:48;62969.78;;;6.74;100.00
7832;BME280;3961;42.058;25.586;2022-10-18T04:26:14;62978.19;;;6.79;100.00
7832;BME280;3961;42.058;25.586;2022-10-18T04:28:41;62977.34;;;6.76;100.00
7832;BME280;3961;42.058;25.586;2022-10-18T04:31:08;62968.72;;;6.68;100.00
7832;BME280;3961;42.058;25.586;2022-10-18T04:33:34;62979.91;;;6.81;100.00
7832;BME280;3961;42.058;25.586;2022-10-18T04:35:59;62964.84;;;6.72;100.00
7832;BME280;3961;42.058;25.586;2022-10-18T04:38:25;62962.66;;;6.65;100.00
7832;BME280;3961;42.058;25.586;2022-10-18T04:40:51;62965.53;;;6.68;100.00
7832;BME280;3961;42.058;25.586;2022-10-18T04:43:16;62967.66;;;6.63;100.00
7832;BME280;3961;42.058;25.586;2022-10-18T04:45:44;62941.03;;;6.49;100.00
7832;BME280;3961;42.058;25.586;2022-10-18T04:48:09;62949.06;;;6.56;100.00
7832;BME280;3961;42.058;25.586;2022-10-18T04:50:35;62939.31;;;6.47;100.00
7832;BME280;3961;42.058;25.586;2022-10-18T04:53:00;62954.00;;;6.58;100.00
7832;BME280;3961;42.058;25.586;2022-10-18T04:55:26;62929.53;;;6.38;100.00
7832;BME280;3961;42.058;25.586;2022-10-18T04:57:52;62953.09;;;6.59;100.00
7832;BME280;3961;42.058;25.586;2022-10-18T05:00:17;62953.44;;;6.57;100.00
7832;BME280;3961;42.058;25.586;2022-10-18T05:02:43;62970.47;;;6.70;100.00
7832;BME280;3961;42.058;25.586;2022-10-18T05:05:08;62970.38;;;6.74;100.00
7832;BME280;3961;42.058;25.586;2022-10-18T05:07:34;62967.81;;;6.70;100.00
7832;BME280;3961;42.058;25.586;2022-10-18T05:09:59;62964.94;;;6.67;100.00
7832;BME280;3961;42.058;25.586;2022-10-18T05:12:25;62960.09;;;6.61;100.00
7832;BME280;3961;42.058;25.586;2022-10-18T05:14:50;62986.78;;;6.87;100.00
7832;BME280;3961;42.058;25.586;2022-10-18T05:17:16;62982.53;;;6.81;100.00
7832;BME280;3961;42.058;25.586;2022-10-18T05:19:41;62987.03;;;6.89;100.00
7832;BME280;3961;42.058;25.586;2022-10-18T05:22:07;62980.13;;;6.83;100.00
7832;BME280;3961;42.058;25.586;2022-10-18T05:24:32;62993.69;;;6.93;100.00
7832;BME280;3961;42.058;25.586;2022-10-18T05:26:58;63009.22;;;7.06;100.00
7832;BME280;3961;42.058;25.586;2022-10-18T05:29:23;63024.41;;;7.22;100.00
7832;BME280;3961;42.058;25.586;2022-10-18T05:31:49;63033.63;;;7.30;100.00
7832;BME280;3961;42.058;25.586;2022-10-18T05:34:15;63047.19;;;7.40;100.00
7832;BME280;3961;42.058;25.586;2022-10-18T05:36:41;63041.19;;;7.32;100.00
7832;BME280;3961;42.058;25.586;2022-10-18T05:39:06;63047.78;;;7.40;100.00
7832;BME280;3961;42.058;25.586;2022-10-18T05:41:32;63048.94;;;7.41;100.00
7832;BME280;3961;42.058;25.586;2022-10-18T05:43:58;63048.47;;;7.48;100.00
7832;BME280;3961;42.058;25.586;2022-10-18T05:46:26;63055.47;;;7.50;100.00
7832;BME280;3961;42.058;25.586;2022-10-18T05:48:52;63051.00;;;7.41;100.00
7832;BME280;3961;42.058;25.586;2022-10-18T05:51:18;63051.13;;;7.48;100.00
7832;BME280;3961;42.058;25.586;2022-10-18T05:53:43;63049.75;;;7.45;100.00
7832;BME280;3961;42.058;25.586;2022-10-18T05:56:09;63077.34;;;7.69;100.00
7832;BME280;3961;42.058;25.586;2022-10-18T05:58:39;63082.31;;;7.71;100.00
7832;BME280;3961;42.058;25.586;2022-10-18T06:01:05;63080.56;;;7.69;100.00
7832;BME280;3961;42.058;25.586;2022-10-18T06:03:31;63102.44;;;7.89;100.00
7832;BME280;3961;42.058;25.586;2022-10-18T06:06:01;63130.06;;;8.13;100.00
7832;BME280;3961;42.058;25.586;2022-10-18T06:08:26;63152.56;;;8.33;100.00
7832;BME280;3961;42.058;25.586;2022-10-18T06:10:52;63157.19;;;8.37;100.00
7832;BME280;3961;42.058;25.586;2022-10-18T06:13:18;63173.88;;;8.52;100.00
7832;BME280;3961;42.058;25.586;2022-10-18T06:15:44;63192.09;;;8.65;100.00
7832;BME280;3961;42.058;25.586;2022-10-18T06:18:09;63205.00;;;8.79;100.00
7832;BME280;3961;42.058;25.586;2022-10-18T06:20:35;63307.88;;;9.72;100.00
7832;BME280;3961;42.058;25.586;2022-10-18T06:23:00;63411.00;;;10.60;100.00
7832;BME280;3961;42.058;25.586;2022-10-18T06:25:26;63538.03;;;11.76;91.06
7832;BME280;3961;42.058;25.586;2022-10-18T06:27:51;63438.38;;;10.87;89.90
7832;BME280;3961;42.058;25.586;2022-10-18T06:30:17;63409.50;;;10.61;92.25
7832;BME280;3961;42.058;25.586;2022-10-18T06:32:42;63382.13;;;10.35;92.87
7832;BME280;3961;42.058;25.586;2022-10-18T06:35:08;63356.94;;;10.15;94.25
7832;BME280;3961;42.058;25.586;2022-10-18T06:37:34;63354.84;;;10.16;93.70
7832;BME280;3961;42.058;25.586;2022-10-18T06:40:01;63367.34;;;10.24;94.32
7832;BME280;3961;42.058;25.586;2022-10-18T06:42:27;63363.78;;;10.26;93.56
7832;BME280;3961;42.058;25.586;2022-10-18T06:44:53;63384.44;;;10.37;93.32
7832;BME280;3961;42.058;25.586;2022-10-18T06:47:18;63370.22;;;10.27;92.43
7832;BME280;3961;42.058;25.586;2022-10-18T06:49:44;63368.25;;;10.23;92.51
7832;BME280;3961;42.058;25.586;2022-10-18T06:52:09;63518.47;;;11.55;92.64
7832;BME280;3961;42.058;25.586;2022-10-18T06:54:35;63504.59;;;11.42;87.35
7832;BME280;3961;42.058;25.586;2022-10-18T06:57:00;63595.06;;;12.24;89.28
7832;BME280;3961;42.058;25.586;2022-10-18T06:59:27;63777.28;;;13.82;83.35
7832;BME280;3961;42.058;25.586;2022-10-18T07:01:53;63773.09;;;13.83;80.12
7832;BME280;3961;42.058;25.586;2022-10-18T07:04:18;63827.38;;;14.28;82.89
7832;BME280;3961;42.058;25.586;2022-10-18T07:06:44;63828.66;;;14.24;70.65
7832;BME280;3961;42.058;25.586;2022-10-18T07:09:09;63758.94;;;13.68;72.01
7832;BME280;3961;42.058;25.586;2022-10-18T07:11:35;63685.59;;;13.06;73.83
7832;BME280;3961;42.058;25.586;2022-10-18T07:14:02;63641.72;;;12.63;75.87
7832;BME280;3961;42.058;25.586;2022-10-18T07:16:30;63630.38;;;12.55;76.03
7832;BME280;3961;42.058;25.586;2022-10-18T07:18:56;63615.66;;;12.40;76.16
7832;BME280;3961;42.058;25.586;2022-10-18T07:21:23;63627.59;;;12.48;76.47
7832;BME280;3961;42.058;25.586;2022-10-18T07:23:49;63618.31;;;12.40;76.18
7832;BME280;3961;42.058;25.586;2022-10-18T07:26:21;63616.81;;;12.41;76.85
7832;BME280;3961;42.058;25.586;2022-10-18T07:28:51;63643.09;;;12.66;76.34
7832;BME280;3961;42.058;25.586;2022-10-18T07:31:19;63656.19;;;12.75;76.34
7832;BME280;3961;42.058;25.586;2022-10-18T07:33:44;63667.41;;;12.88;75.52
7832;BME280;3961;42.058;25.586;2022-10-18T07:36:11;63675.28;;;12.92;76.29
7832;BME280;3961;42.058;25.586;2022-10-18T07:38:37;63697.63;;;13.09;75.80
7832;BME280;3961;42.058;25.586;2022-10-18T07:41:04;63809.72;;;14.10;80.66
7832;BME280;3961;42.058;25.586;2022-10-18T07:43:32;63776.09;;;13.81;72.38
7832;BME280;3961;42.058;25.586;2022-10-18T07:46:00;63779.59;;;13.84;73.09
7832;BME280;3961;42.058;25.586;2022-10-18T07:48:26;63803.22;;;14.09;72.78
7832;BME280;3961;42.058;25.586;2022-10-18T07:50:53;63828.06;;;14.24;72.24
7832;BME280;3961;42.058;25.586;2022-10-18T07:53:18;63862.41;;;14.61;70.88
7832;BME280;3961;42.058;25.586;2022-10-18T07:55:44;63892.69;;;14.83;70.03
7832;BME280;3961;42.058;25.586;2022-10-18T07:58:10;63905.25;;;14.91;70.07
7832;BME280;3961;42.058;25.586;2022-10-18T08:00:36;63926.00;;;15.14;70.01
7832;BME280;3961;42.058;25.586;2022-10-18T08:03:01;63955.72;;;15.35;69.15
7832;BME280;3961;42.058;25.586;2022-10-18T08:05:28;63981.75;;;15.63;69.78
7832;BME280;3961;42.058;25.586;2022-10-18T08:07:54;63996.97;;;15.71;69.05
7832;BME280;3961;42.058;25.586;2022-10-18T08:10:21;64016.41;;;15.91;68.92
7832;BME280;3961;42.058;25.586;2022-10-18T08:12:47;64045.78;;;16.14;70.17
7832;BME280;3961;42.058;25.586;2022-10-18T08:15:12;64043.00;;;16.19;69.31
7832;BME280;3961;42.058;25.586;2022-10-18T08:17:38;64071.34;;;16.36;69.03
7832;BME280;3961;42.058;25.586;2022-10-18T08:20:04;64095.75;;;16.58;69.72
7832;BME280;3961;42.058;25.586;2022-10-18T08:22:30;64096.81;;;16.63;69.14
7832;BME280;3961;42.058;25.586;2022-10-18T08:24:56;64114.41;;;16.74;70.07
7832;BME280;3961;42.058;25.586;2022-10-18T08:27:21;64139.16;;;16.93;70.60
7832;BME280;3961;42.058;25.586;2022-10-18T08:29:49;64133.00;;;16.90;70.53
7832;BME280;3961;42.058;25.586;2022-10-18T08:32:14;64131.72;;;16.94;70.07
7832;BME280;3961;42.058;25.586;2022-10-18T08:34:40;64162.31;;;17.18;68.91
7832;BME280;3961;42.058;25.586;2022-10-18T08:37:05;64179.78;;;17.33;67.35
7832;BME280;3961;42.058;25.586;2022-10-18T08:39:31;64204.19;;;17.55;67.73
7832;BME280;3961;42.058;25.586;2022-10-18T08:42:11;64249.63;;;17.94;66.63
7832;BME280;3961;42.058;25.586;2022-10-18T08:44:48;64271.53;;;18.11;65.64
7832;BME280;3961;42.058;25.586;2022-10-18T08:47:34;64271.53;;;18.11;64.86
7832;BME280;3961;42.058;25.586;2022-10-18T08:50:05;64259.31;;;18.00;64.40
7832;BME280;3961;42.058;25.586;2022-10-18T08:55:25;64301.47;;;18.39;63.75
7832;BME280;3961;42.058;25.586;2022-10-18T08:57:53;64300.41;;;18.45;63.49
7832;BME280;3961;42.058;25.586;2022-10-18T09:00:21;64436.72;;;19.57;63.86
7832;BME280;3961;42.058;25.586;2022-10-18T09:05:48;64544.09;;;20.51;58.12
7832;BME280;3961;42.058;25.586;2022-10-18T09:08:33;64552.88;;;20.58;56.94
7832;BME280;3961;42.058;25.586;2022-10-18T09:11:25;64533.03;;;20.41;58.48
7832;BME280;3961;42.058;25.586;2022-10-18T09:24:14;64581.25;;;20.80;56.71
7832;BME280;3961;42.058;25.586;2022-10-18T09:26:46;64580.66;;;20.80;56.08
7832;BME280;3961;42.058;25.586;2022-10-18T09:37:36;64628.59;;;21.22;54.80
7832;BME280;3961;42.058;25.586;2022-10-18T09:40:14;64669.28;;;21.55;52.99
7832;BME280;3961;42.058;25.586;2022-10-18T09:45:30;64666.56;;;21.55;54.47
7832;BME280;3961;42.058;25.586;2022-10-18T09:48:09;64680.59;;;21.67;53.56
7832;BME280;3961;42.058;25.586;2022-10-18T09:50:55;64686.81;;;21.70;52.98
7832;BME280;3961;42.058;25.586;2022-10-18T09:56:26;64673.22;;;21.63;51.73
7832;BME280;3961;42.058;25.586;2022-10-18T09:58:53;64672.41;;;21.60;47.80
7832;BME280;3961;42.058;25.586;2022-10-18T10:01:28;64615.34;;;21.12;48.37
7832;BME280;3961;42.058;25.586;2022-10-18T10:03:54;64636.19;;;21.28;49.73
7832;BME280;3961;42.058;25.586;2022-10-18T10:06:28;64629.03;;;21.27;50.70
7832;BME280;3961;42.058;25.586;2022-10-18T10:09:00;64661.31;;;21.50;52.15
7832;BME280;3961;42.058;25.586;2022-10-18T10:14:07;64501.13;;;20.16;44.44
7832;BME280;3961;42.058;25.586;2022-10-18T10:16:42;64478.84;;;19.89;46.00
7832;BME280;3961;42.058;25.586;2022-10-18T10:19:58;64437.88;;;19.58;47.76
7832;BME280;3961;42.058;25.586;2022-10-18T10:22:05;64537.69;;;20.45;50.17
7832;BME280;3961;42.058;25.586;2022-10-18T10:24:46;64534.19;;;20.42;50.45
7832;BME280;3961;42.058;25.586;2022-10-18T10:27:19;64523.22;;;20.28;49.53
7832;BME280;3961;42.058;25.586;2022-10-18T10:32:19;64611.28;;;21.09;47.53
7832;BME280;3961;42.058;25.586;2022-10-18T10:34:45;64650.44;;;21.43;47.44
7832;BME280;3961;42.058;25.586;2022-10-18T10:37:40;64655.09;;;21.47;45.40
7832;BME280;3961;42.058;25.586;2022-10-18T10:42:51;64592.56;;;20.93;47.05
7832;BME280;3961;42.058;25.586;2022-10-18T10:45:19;64626.59;;;21.18;45.81
7832;BME280;3961;42.058;25.586;2022-10-18T10:47:46;64542.00;;;20.51;46.56
7832;BME280;3961;42.058;25.586;2022-10-18T10:50:13;64507.91;;;20.19;47.32
7832;BME280;3961;42.058;25.586;2022-10-18T10:52:46;64522.03;;;20.27;47.58
7832;BME280;3961;42.058;25.586;2022-10-18T10:55:22;64506.13;;;20.18;48.33
7832;BME280;3961;42.058;25.586;2022-10-18T10:57:49;64600.31;;;20.95;48.21
7832;BME280;3961;42.058;25.586;2022-10-18T11:00:42;64632.31;;;21.27;46.60
7832;BME280;3961;42.058;25.586;2022-10-18T11:03:14;64632.69;;;21.25;45.94
7832;BME280;3961;42.058;25.586;2022-10-18T11:05:45;64576.44;;;20.81;46.76
7832;BME280;3961;42.058;25.586;2022-10-18T11:08:15;64570.41;;;20.73;47.21
7832;BME280;3961;42.058;25.586;2022-10-18T11:10:51;64629.41;;;21.25;47.07
7832;BME280;3961;42.058;25.586;2022-10-18T11:13:27;64647.88;;;21.38;45.99
7832;BME280;3961;42.058;25.586;2022-10-18T11:16:03;64705.00;;;21.93;45.32
7832;BME280;3961;42.058;25.586;2022-10-18T11:18:34;64680.75;;;21.62;44.19
7832;BME280;3961;42.058;25.586;2022-10-18T11:21:06;64655.47;;;21.45;44.74
7832;BME280;3961;42.058;25.586;2022-10-18T11:23:37;64633.72;;;21.31;44.01
7832;BME280;3961;42.058;25.586;2022-10-18T11:31:33;64540.25;;;20.50;47.30
7832;BME280;3961;42.058;25.586;2022-10-18T11:36:50;64509.41;;;20.18;47.49
7832;BME280;3961;42.058;25.586;2022-10-18T11:47:44;64492.38;;;20.08;48.58
7832;BME280;3961;42.058;25.586;2022-10-18T11:50:47;64554.16;;;20.55;48.43
7832;BME280;3961;42.058;25.586;2022-10-18T11:53:39;64576.44;;;20.81;46.70
7832;BME280;3961;42.058;25.586;2022-10-18T11:59:10;64583.34;;;20.80;41.89
7832;BME280;3961;42.058;25.586;2022-10-18T12:04:53;64553.22;;;20.56;40.03
7832;BME280;3961;42.058;25.586;2022-10-18T12:07:21;64575.84;;;20.80;38.74
7832;BME280;3961;42.058;25.586;2022-10-18T12:09:49;64563.59;;;20.70;39.22
7832;BME280;3961;42.058;25.586;2022-10-18T12:12:25;64571.91;;;20.72;39.08
7832;BME280;3961;42.058;25.586;2022-10-18T12:14:59;64531.50;;;20.42;37.80
7832;BME280;3961;42.058;25.586;2022-10-18T12:17:34;64551.69;;;20.57;37.98
7832;BME280;3961;42.058;25.586;2022-10-18T12:20:11;64528.59;;;20.39;37.57
7832;BME280;3961;42.058;25.586;2022-10-18T12:25:32;64575.06;;;20.77;36.44
7832;BME280;3961;42.058;25.586;2022-10-18T12:28:04;64585.91;;;20.85;36.00
7832;BME280;3961;42.058;25.586;2022-10-18T12:30:41;64597.03;;;20.94;36.11
7832;BME280;3961;42.058;25.586;2022-10-18T12:33:17;64585.91;;;20.85;36.97
7832;BME280;3961;42.058;25.586;2022-10-18T12:38:30;64574.63;;;20.72;36.03
7832;BME280;3961;42.058;25.586;2022-10-18T12:40:57;64532.44;;;20.40;37.39
7832;BME280;3961;42.058;25.586;2022-10-18T12:43:28;64536.53;;;20.44;37.69
7832;BME280;3961;42.058;25.586;2022-10-18T12:46:00;64523.06;;;20.32;37.86
7832;BME280;3961;42.058;25.586;2022-10-18T12:51:03;64513.97;;;20.27;39.28
7832;BME280;3961;42.058;25.586;2022-10-18T12:53:29;64551.03;;;20.50;39.62
7832;BME280;3961;42.058;25.586;2022-10-18T13:09:23;64532.22;;;20.38;39.59
7832;BME280;3961;42.058;25.586;2022-10-18T13:25:23;64510.22;;;20.21;41.76
7832;BME280;3961;42.058;25.586;2022-10-18T13:27:52;64514.81;;;20.18;41.94
7832;BME280;3961;42.058;25.586;2022-10-18T13:30:29;64518.03;;;20.30;42.68
7832;BME280;3961;42.058;25.586;2022-10-18T13:38:36;64537.47;;;20.42;44.19
7832;BME280;3961;42.058;25.586;2022-10-18T13:41:06;64519.78;;;20.32;45.12
7832;BME280;3961;42.058;25.586;2022-10-18T13:46:18;64534.34;;;20.37;45.14
7832;BME280;3961;42.058;25.586;2022-10-18T13:59:30;64500.47;;;20.08;48.77
7832;BME280;3961;42.058;25.586;2022-10-18T14:05:19;64522.84;;;20.30;49.01
7832;BME280;3961;42.058;25.586;2022-10-18T14:07:49;64513.28;;;20.19;48.81
7832;BME280;3961;42.058;25.586;2022-10-18T14:10:23;64516.06;;;20.26;48.54
7832;BME280;3961;42.058;25.586;2022-10-18T14:12:52;64502.44;;;20.12;48.53
7832;BME280;3961;42.058;25.586;2022-10-18T14:15:26;64505.34;;;20.14;48.71
7832;BME280;3961;42.058;25.586;2022-10-18T14:18:11;64483.75;;;19.96;48.87
7832;BME280;3961;42.058;25.586;2022-10-18T14:20:40;64488.41;;;20.00;49.12
7832;BME280;3961;42.058;25.586;2022-10-18T14:23:16;64503.38;;;20.10;48.17
7832;BME280;3961;42.058;25.586;2022-10-18T14:25:43;64500.69;;;20.10;48.20
7832;BME280;3961;42.058;25.586;2022-10-18T14:28:14;64493.44;;;20.02;48.54
7832;BME280;3961;42.058;25.586;2022-10-18T14:30:55;64491.13;;;20.00;49.51
7832;BME280;3961;42.058;25.586;2022-10-18T14:33:37;64473.34;;;19.94;49.86
7832;BME280;3961;42.058;25.586;2022-10-18T14:36:21;64476.75;;;19.90;50.27
7832;BME280;3961;42.058;25.586;2022-10-18T14:41:20;64462.97;;;19.80;51.22
7832;BME280;3961;42.058;25.586;2022-10-18T14:43:47;64453.41;;;19.69;51.80
7832;BME280;3961;42.058;25.586;2022-10-18T14:46:20;64442.91;;;19.60;52.20
7832;BME280;3961;42.058;25.586;2022-10-18T14:49:06;64433.81;;;19.55;52.92
7832;BME280;3961;42.058;25.586;2022-10-18T14:51:35;64426.22;;;19.48;53.29
7832;BME280;3961;42.058;25.586;2022-10-18T14:54:01;64419.81;;;19.42;53.87
7832;BME280;3961;42.058;25.586;2022-10-18T14:56:30;64420.16;;;19.40;54.27
7832;BME280;3961;42.058;25.586;2022-10-18T14:58:59;64398.78;;;19.24;55.05
7832;BME280;3961;42.058;25.586;2022-10-18T15:01:29;64394.94;;;19.23;55.46
7832;BME280;3961;42.058;25.586;2022-10-18T15:04:00;64389.47;;;19.16;55.95
7832;BME280;3961;42.058;25.586;2022-10-18T15:06:27;64381.81;;;19.02;56.69
7832;BME280;3961;42.058;25.586;2022-10-18T15:08:57;64368.63;;;18.93;57.57
7832;BME280;3961;42.058;25.586;2022-10-18T15:11:24;64348.09;;;18.80;58.02
7832;BME280;3961;42.058;25.586;2022-10-18T15:13:56;64350.78;;;18.80;58.53
7832;BME280;3961;42.058;25.586;2022-10-18T15:16:28;64341.09;;;18.74;58.98
7832;BME280;3961;42.058;25.586;2022-10-18T15:21:27;64318.69;;;18.52;60.24
7832;BME280;3961;42.058;25.586;2022-10-18T15:23:54;64301.69;;;18.42;60.86
7832;BME280;3961;42.058;25.586;2022-10-18T15:26:27;64294.81;;;18.31;61.33
7832;BME280;3961;42.058;25.586;2022-10-18T15:28:55;64287.84;;;18.25;61.78
7832;BME280;3961;42.058;25.586;2022-10-18T15:31:34;64273.50;;;18.15;62.27
7832;BME280;3961;42.058;25.586;2022-10-18T15:34:19;64266.53;;;18.09;62.83
7832;BME280;3961;42.058;25.586;2022-10-18T15:36:48;64260.47;;;18.01;63.19
7832;BME280;3961;42.058;25.586;2022-10-18T15:39:24;64254.88;;;17.99;63.12
7832;BME280;3961;42.058;25.586;2022-10-18T15:54:35;64196.28;;;17.50;66.23
7832;BME280;3961;42.058;25.586;2022-10-18T15:57:08;64180.13;;;17.31;66.44
7832;BME280;3961;42.058;25.586;2022-10-18T15:59:34;64186.53;;;17.37;66.87
7832;BME280;3961;42.058;25.586;2022-10-18T16:02:01;64164.06;;;17.20;67.18